createdAt,value
2022-08-05T00:00:00.000Z,7.66
2022-08-05T00:15:00.000Z,7.75
2022-08-05T00:30:00.000Z,8.19
2022-08-05T00:45:00.000Z,7.72
2022-08-05T01:00:00.000Z,7.71
2022-08-05T01:15:00.000Z,7.55
2022-08-05T01:30:00.000Z,7.73
2022-08-05T01:45:00.000Z,7.92
2022-08-05T02:00:00.000Z,7.92
2022-08-05T02:15:00.000Z,7.71
2022-08-05T02:30:00.000Z,8.13
2022-08-05T02:45:00.000Z,7.78
2022-08-05T03:00:00.000Z,7.54
2022-08-05T03:15:00.000Z,7.29
2022-08-05T03:30:00.000Z,7.36
2022-08-05T03:45:00.000Z,8.07
2022-08-05T04:00:00.000Z,8.68
2022-08-05T04:15:00.000Z,8.75
2022-08-05T04:30:00.000Z,8.88
2022-08-05T04:45:00.000Z,7.51
2022-08-05T05:00:00.000Z,7.31
2022-08-05T05:15:00.000Z,8.25
2022-08-05T05:30:00.000Z,7.92
2022-08-05T05:45:00.000Z,7.93
2022-08-05T06:00:00.000Z,7.54
2022-08-05T06:15:00.000Z,7.74
2022-08-05T06:30:00.000Z,8.96
2022-08-05T06:45:00.000Z,7.81
2022-08-05T07:00:00.000Z,7.59
2022-08-05T07:15:00.000Z,7.44
2022-08-05T07:30:00.000Z,7.89
2022-08-05T07:45:00.000Z,7.2
2022-08-05T08:00:00.000Z,7.39
2022-08-05T08:15:00.000Z,7.5
2022-08-05T08:30:00.000Z,7.71
2022-08-05T08:45:00.000Z,7.14
2022-08-05T09:00:00.000Z,7.15
2022-08-05T09:15:00.000Z,5.36
2022-08-05T09:30:00.000Z,4.56
2022-08-05T09:45:00.000Z,4.25
2022-08-05T10:00:00.000Z,4.86
2022-08-05T10:15:00.000Z,4.85
2022-08-05T10:30:00.000Z,5.48
2022-08-05T10:45:00.000Z,5.09
2022-08-05T11:00:00.000Z,5.82
2022-08-05T11:15:00.000Z,4.72
2022-08-05T11:30:00.000Z,5.64
2022-08-05T11:45:00.000Z,6.93
2022-08-05T12:00:00.000Z,6.76
2022-08-05T12:15:00.000Z,7.02
2022-08-05T12:30:00.000Z,7.54
2022-08-05T12:45:00.000Z,7.25
2022-08-05T13:00:00.000Z,7.98
2022-08-05T13:15:00.000Z,7.81
2022-08-05T13:30:00.000Z,7.92
2022-08-05T13:45:00.000Z,7.55
2022-08-05T14:00:00.000Z,7.06
2022-08-05T14:15:00.000Z,7.07
2022-08-05T14:30:00.000Z,7.16
2022-08-05T14:45:00.000Z,7.21
2022-08-05T15:00:00.000Z,7.28
2022-08-05T15:15:00.000Z,8
2022-08-05T15:30:00.000Z,7.47
2022-08-05T15:45:00.000Z,8.35
2022-08-05T16:00:00.000Z,9.61
2022-08-05T16:15:00.000Z,8.59
2022-08-05T16:30:00.000Z,9
2022-08-05T16:45:00.000Z,8.74
2022-08-05T17:00:00.000Z,8.79
2022-08-05T17:15:00.000Z,8.76
2022-08-05T17:30:00.000Z,8.32
2022-08-05T17:45:00.000Z,8.38
2022-08-05T18:00:00.000Z,8.84
2022-08-05T18:15:00.000Z,7.95
2022-08-05T18:30:00.000Z,7.46
2022-08-05T18:45:00.000Z,7.13
2022-08-05T19:00:00.000Z,7.06
2022-08-05T19:15:00.000Z,6.92
2022-08-05T19:30:00.000Z,5
2022-08-05T19:45:00.000Z,4.74
2022-08-05T20:00:00.000Z,4.82
2022-08-05T20:15:00.000Z,4.65
2022-08-05T20:30:00.000Z,4.39
2022-08-05T20:45:00.000Z,4.36
2022-08-05T21:00:00.000Z,4.42
2022-08-05T21:15:00.000Z,4.22
2022-08-05T21:30:00.000Z,4.27
2022-08-05T21:45:00.000Z,4.25
2022-08-05T22:00:00.000Z,4.19
2022-08-05T22:15:00.000Z,4.32
2022-08-05T22:30:00.000Z,6.07
2022-08-05T22:45:00.000Z,5.26
2022-08-05T23:00:00.000Z,5.59
2022-08-05T23:15:00.000Z,6.54
2022-08-05T23:30:00.000Z,6.32
2022-08-05T23:45:00.000Z,6.69
